createdAt,value
2019-05-22T00:00:59.849Z,25.85
2019-05-22T00:03:41.627Z,27.35
2019-05-22T00:06:16.742Z,26.48
2019-05-22T00:08:51.560Z,27.50
2019-05-22T00:11:26.959Z,26.48
2019-05-22T00:14:01.479Z,26.27
2019-05-22T00:16:36.539Z,27.22
2019-05-22T00:19:11.421Z,27.45
2019-05-22T00:21:48.087Z,29.77
2019-05-22T00:24:24.033Z,29.48
2019-05-22T00:27:00.130Z,31.50
2019-05-22T00:29:35.419Z,30.70
2019-05-22T00:32:11.137Z,29.23
2019-05-22T00:35:03.131Z,28.12
2019-05-22T00:37:38.492Z,28.10
2019-05-22T00:40:15.545Z,29.02
2019-05-22T00:43:03.463Z,30.43
2019-05-22T00:45:28.279Z,28.62
2019-05-22T00:48:03.475Z,30.25
2019-05-22T00:50:55.230Z,29.15
2019-05-22T00:53:32.206Z,28.75
2019-05-22T00:56:23.547Z,30.27
2019-05-22T00:59:00.025Z,28.98
2019-05-22T01:01:36.566Z,29.85
2019-05-22T01:04:15.331Z,29.87
2019-05-22T01:06:50.007Z,30.12
2019-05-22T01:09:41.090Z,28.40
2019-05-22T01:12:20.898Z,27.62
2019-05-22T01:14:56.047Z,26.90
2019-05-22T01:17:32.106Z,27.22
2019-05-22T01:20:08.847Z,30.15
2019-05-22T01:22:47.086Z,30.02
2019-05-22T01:25:22.351Z,29.65
2019-05-22T01:27:58.164Z,31.25
2019-05-22T01:30:37.113Z,30.85
2019-05-22T01:33:15.762Z,30.08
2019-05-22T01:35:54.725Z,29.98
2019-05-22T01:38:30.478Z,30.75
2019-05-22T01:41:16.493Z,30.27
2019-05-22T01:43:51.935Z,34.27
2019-05-22T01:46:27.263Z,32.50
2019-05-22T01:49:05.356Z,34.10
2019-05-22T01:51:40.212Z,33.53
2019-05-22T01:54:14.711Z,32.28
2019-05-22T01:56:50.559Z,32.58
2019-05-22T01:59:25.293Z,32.67
2019-05-22T02:02:00.566Z,33.50
2019-05-22T02:04:35.620Z,32.85
2019-05-22T02:07:11.194Z,33.53
2019-05-22T02:09:47.504Z,34.33
2019-05-22T02:12:28.772Z,34.70
2019-05-22T02:15:04.840Z,31.93
2019-05-22T02:17:39.058Z,34.27
2019-05-22T02:20:14.181Z,33.42
2019-05-22T02:22:49.732Z,33.02
2019-05-22T02:25:25.138Z,35.88
2019-05-22T02:28:00.364Z,35.23
2019-05-22T02:30:35.322Z,34.75
2019-05-22T02:33:10.645Z,35.25
2019-05-22T02:35:45.219Z,37.93
2019-05-22T02:38:20.078Z,38.80
2019-05-22T02:40:56.191Z,39.25
2019-05-22T02:43:30.401Z,40.00
2019-05-22T02:46:06.259Z,38.17
2019-05-22T02:48:42.571Z,38.13
2019-05-22T02:51:17.418Z,41.45
2019-05-22T02:53:52.864Z,43.65
2019-05-22T02:56:27.846Z,37.53
2019-05-22T02:59:01.943Z,37.60
2019-05-22T03:01:36.680Z,37.38
2019-05-22T03:04:12.142Z,38.90
2019-05-22T03:06:47.150Z,37.98
2019-05-22T03:09:23.922Z,40.67
2019-05-22T03:12:00.669Z,40.23
2019-05-22T03:14:36.060Z,37.93
2019-05-22T03:17:13.199Z,37.65
2019-05-22T03:19:47.879Z,38.13
2019-05-22T03:22:27.552Z,37.13
2019-05-22T03:25:03.722Z,46.98
2019-05-22T03:27:43.517Z,38.65
2019-05-22T03:30:23.269Z,53.40
2019-05-22T03:32:59.424Z,83.10
2019-05-22T03:35:36.901Z,61.20
2019-05-22T03:38:12.191Z,33.80
2019-05-22T03:40:48.633Z,34.30
2019-05-22T03:43:29.540Z,35.00
2019-05-22T03:46:06.578Z,33.65
2019-05-22T03:48:41.045Z,33.70
2019-05-22T03:51:17.039Z,34.10
2019-05-22T03:53:51.466Z,37.28
2019-05-22T03:56:26.636Z,36.03
2019-05-22T03:59:00.862Z,35.33
2019-05-22T04:01:36.073Z,36.68
2019-05-22T04:04:11.313Z,37.05
2019-05-22T04:06:46.579Z,38.35
2019-05-22T04:09:26.363Z,37.17
2019-05-22T04:12:00.449Z,36.05
2019-05-22T04:14:39.299Z,35.08
2019-05-22T04:17:15.196Z,35.20
2019-05-22T04:19:51.479Z,33.73
2019-05-22T04:22:25.344Z,35.17
2019-05-22T04:25:00.062Z,38.78
2019-05-22T04:27:35.209Z,37.48
2019-05-22T04:30:13.311Z,37.75
2019-05-22T04:32:48.037Z,36.83
2019-05-22T04:35:24.033Z,35.17
2019-05-22T04:38:00.596Z,36.33
2019-05-22T04:40:45.462Z,35.30
2019-05-22T04:43:21.457Z,66.92
2019-05-22T04:45:58.772Z,38.42
2019-05-22T04:48:36.022Z,35.98
2019-05-22T04:51:30.891Z,35.13
2019-05-22T04:54:06.533Z,35.68
2019-05-22T04:56:41.868Z,36.38
2019-05-22T04:59:17.057Z,37.15
2019-05-22T05:01:51.635Z,36.48
2019-05-22T05:04:28.211Z,37.65
2019-05-22T05:07:04.316Z,36.77
2019-05-22T05:09:38.314Z,45.03
2019-05-22T05:12:13.742Z,40.70
2019-05-22T05:14:49.890Z,47.13
2019-05-22T05:17:24.236Z,44.73
2019-05-22T05:19:59.807Z,40.75
2019-05-22T05:22:50.676Z,38.42
2019-05-22T05:25:25.399Z,39.05
2019-05-22T05:28:00.518Z,38.88
2019-05-22T05:30:35.319Z,38.85
2019-05-22T05:33:10.298Z,39.10
2019-05-22T05:35:45.869Z,40.17
2019-05-22T05:38:22.895Z,38.28
2019-05-22T05:41:03.270Z,38.33
2019-05-22T05:43:37.230Z,35.68
2019-05-22T05:46:11.381Z,36.20
2019-05-22T05:48:46.047Z,37.17
2019-05-22T05:51:22.669Z,35.43
2019-05-22T05:54:08.430Z,35.17
2019-05-22T05:56:47.517Z,34.83
2019-05-22T05:59:23.338Z,35.08
2019-05-22T06:01:57.548Z,35.63
2019-05-22T06:04:35.343Z,38.73
2019-05-22T06:07:22.403Z,35.48
2019-05-22T06:09:58.930Z,37.20
2019-05-22T06:12:33.200Z,35.68
2019-05-22T06:15:08.414Z,35.52
2019-05-22T06:18:07.090Z,39.78
2019-05-22T06:20:43.169Z,37.15
2019-05-22T06:23:32.603Z,37.20
2019-05-22T06:26:07.917Z,35.23
2019-05-22T06:28:43.705Z,36.88
2019-05-22T06:31:36.843Z,36.13
2019-05-22T06:34:12.131Z,35.95
2019-05-22T06:36:46.505Z,35.52
2019-05-22T06:39:21.464Z,37.05
2019-05-22T06:41:56.366Z,34.75
2019-05-22T06:44:35.744Z,36.88
2019-05-22T06:47:13.306Z,36.33
2019-05-22T06:49:49.281Z,35.58
2019-05-22T06:52:24.103Z,35.13
2019-05-22T06:54:59.374Z,36.50
2019-05-22T06:57:37.596Z,34.25
2019-05-22T07:00:15.375Z,33.92
2019-05-22T07:02:50.418Z,33.15
2019-05-22T07:05:26.916Z,31.82
2019-05-22T07:08:01.444Z,31.35
2019-05-22T07:10:37.348Z,29.50
2019-05-22T07:13:14.287Z,30.32
2019-05-22T07:15:51.878Z,31.02
2019-05-22T07:18:28.632Z,32.63
2019-05-22T07:21:03.802Z,30.52
2019-05-22T07:23:38.071Z,32.53
2019-05-22T07:26:12.279Z,31.20
2019-05-22T07:28:47.864Z,34.18
2019-05-22T07:31:22.074Z,30.88
2019-05-22T07:33:57.434Z,31.75
2019-05-22T07:36:33.081Z,30.32
2019-05-22T07:39:09.238Z,30.00
2019-05-22T07:41:43.562Z,29.25
2019-05-22T07:44:17.535Z,32.00
2019-05-22T07:46:54.411Z,37.53
2019-05-22T07:49:28.998Z,34.30
2019-05-22T07:52:04.426Z,29.63
2019-05-22T07:54:39.243Z,31.55
2019-05-22T07:57:14.543Z,30.10
2019-05-22T07:59:49.341Z,31.73
2019-05-22T08:02:26.591Z,31.50
2019-05-22T08:05:02.184Z,32.55
2019-05-22T08:07:38.725Z,33.30
2019-05-22T08:10:15.434Z,32.65
2019-05-22T08:12:52.037Z,33.15
2019-05-22T08:15:27.370Z,36.23
2019-05-22T08:18:03.030Z,36.60
2019-05-22T08:20:37.363Z,37.28
2019-05-22T08:23:13.282Z,44.20
2019-05-22T08:25:48.272Z,40.08
2019-05-22T08:28:23.187Z,29.50
2019-05-22T08:30:57.784Z,31.45
2019-05-22T08:33:32.986Z,31.57
2019-05-22T08:36:08.951Z,29.42
2019-05-22T08:38:44.024Z,29.25
2019-05-22T08:41:21.279Z,27.73
2019-05-22T08:44:14.678Z,29.90
2019-05-22T08:46:31.897Z,29.00
2019-05-22T08:49:06.476Z,28.38
2019-05-22T08:51:40.393Z,29.67
2019-05-22T08:56:49.463Z,28.67
2019-05-22T08:59:24.734Z,27.17
2019-05-22T09:01:59.478Z,27.42
2019-05-22T09:04:33.420Z,28.10
2019-05-22T09:09:40.060Z,27.37
2019-05-22T09:12:14.619Z,25.62
2019-05-22T09:14:49.210Z,27.02
2019-05-22T09:17:23.777Z,25.12
2019-05-22T09:19:59.095Z,26.77
2019-05-22T09:22:40.519Z,25.40
2019-05-22T09:25:12.853Z,27.05
2019-05-22T09:27:47.844Z,26.17
2019-05-22T09:30:22.976Z,28.85
2019-05-22T09:32:58.946Z,26.40
2019-05-22T09:35:33.235Z,26.68
2019-05-22T09:38:07.505Z,27.77
2019-05-22T09:40:42.022Z,27.70
2019-05-22T09:43:16.227Z,28.02
2019-05-22T09:45:50.947Z,26.42
2019-05-22T09:48:25.465Z,27.40
2019-05-22T09:51:00.674Z,28.45
2019-05-22T09:53:35.241Z,27.37
2019-05-22T09:56:09.891Z,25.80
2019-05-22T09:58:44.382Z,27.82
2019-05-22T10:01:19.081Z,28.10
2019-05-22T10:03:53.748Z,26.80
2019-05-22T10:06:28.572Z,28.60
2019-05-22T10:09:02.789Z,28.32
2019-05-22T10:11:37.914Z,28.65
2019-05-22T10:14:14.129Z,28.55
2019-05-22T10:16:51.256Z,27.80
2019-05-22T10:19:25.525Z,27.22
2019-05-22T10:22:01.751Z,27.90
2019-05-22T10:24:35.168Z,26.90
2019-05-22T10:27:19.482Z,30.15
2019-05-22T10:29:55.367Z,44.55
2019-05-22T10:32:32.204Z,48.20
2019-05-22T10:35:11.221Z,30.77
2019-05-22T10:37:46.178Z,30.55
2019-05-22T10:42:56.193Z,32.08
2019-05-22T10:45:30.428Z,41.92
2019-05-22T10:48:04.855Z,52.17
2019-05-22T10:50:40.429Z,51.05
2019-05-22T10:53:30.667Z,46.88
2019-05-22T10:55:50.500Z,42.90
2019-05-22T10:58:24.638Z,45.25
2019-05-22T11:00:59.055Z,48.45
2019-05-22T11:03:34.659Z,41.95
2019-05-22T11:06:09.658Z,39.20
2019-05-22T11:08:44.036Z,37.65
2019-05-22T11:11:18.389Z,32.53
2019-05-22T11:14:01.324Z,35.55
2019-05-22T11:16:27.659Z,34.25
2019-05-22T11:19:05.265Z,33.15
2019-05-22T11:21:39.354Z,31.82
2019-05-22T11:24:13.867Z,31.73
2019-05-22T11:26:49.428Z,30.92
2019-05-22T11:29:24.017Z,31.23
2019-05-22T11:31:58.769Z,35.28
2019-05-22T11:34:32.766Z,30.48
2019-05-22T11:37:06.650Z,28.05
2019-05-22T11:39:44.876Z,28.42
2019-05-22T11:42:17.268Z,29.30
2019-05-22T11:44:52.033Z,29.42
2019-05-22T11:47:27.137Z,29.70
2019-05-22T11:50:01.680Z,30.25
2019-05-22T11:52:38.929Z,26.90
2019-05-22T11:55:12.769Z,32.23
2019-05-22T11:57:48.451Z,28.85
2019-05-22T12:00:23.453Z,34.50
2019-05-22T12:02:59.552Z,32.75
2019-05-22T12:05:34.498Z,31.30
2019-05-22T12:08:09.891Z,30.50
2019-05-22T12:10:44.366Z,29.60
2019-05-22T12:13:19.472Z,33.30
2019-05-22T12:15:59.987Z,32.25
2019-05-22T12:18:30.142Z,33.83
2019-05-22T12:21:05.592Z,29.15
2019-05-22T12:23:40.618Z,31.25
2019-05-22T12:26:15.741Z,35.68
2019-05-22T12:28:50.620Z,31.30
2019-05-22T12:31:26.067Z,31.82
2019-05-22T12:34:11.739Z,29.15
2019-05-22T12:36:45.629Z,27.90
2019-05-22T12:39:20.474Z,31.35
2019-05-22T12:41:55.435Z,29.55
2019-05-22T12:44:29.818Z,28.40
2019-05-22T12:47:04.954Z,28.55
2019-05-22T12:49:39.264Z,27.35
2019-05-22T12:52:14.541Z,29.87
2019-05-22T12:54:52.667Z,32.23
2019-05-22T12:57:25.646Z,49.23
2019-05-22T13:00:02.409Z,90.83
2019-05-22T13:02:42.201Z,46.20
2019-05-22T13:05:14.781Z,35.70
2019-05-22T13:07:51.679Z,30.60
2019-05-22T13:10:26.159Z,35.03
2019-05-22T13:13:00.754Z,33.75
2019-05-22T13:15:37.909Z,33.30
2019-05-22T13:18:14.336Z,33.23
2019-05-22T13:20:50.895Z,30.90
2019-05-22T13:23:28.296Z,29.75
2019-05-22T13:26:05.037Z,29.95
2019-05-22T13:28:44.143Z,30.25
2019-05-22T13:31:18.637Z,29.25
2019-05-22T13:33:55.957Z,30.32
2019-05-22T13:36:32.568Z,31.30
2019-05-22T13:39:11.917Z,30.05
2019-05-22T13:41:46.340Z,28.85
2019-05-22T13:44:25.018Z,27.65
2019-05-22T13:47:02.920Z,26.25
2019-05-22T13:49:46.830Z,25.50
2019-05-22T13:52:28.736Z,27.87
2019-05-22T13:55:05.285Z,28.85
2019-05-22T13:57:43.717Z,28.27
2019-05-22T14:00:20.795Z,30.50
2019-05-22T14:02:55.507Z,29.30
2019-05-22T14:05:33.033Z,37.48
2019-05-22T14:08:10.291Z,31.33
2019-05-22T14:10:49.816Z,33.98
2019-05-22T14:13:26.740Z,34.90
2019-05-22T14:16:02.667Z,33.83
2019-05-22T14:18:37.309Z,33.02
2019-05-22T14:21:12.288Z,31.65
2019-05-22T14:23:48.832Z,33.50
2019-05-22T14:26:29.758Z,31.20
2019-05-22T14:29:01.138Z,28.75
2019-05-22T14:31:39.119Z,31.75
2019-05-22T14:34:17.426Z,29.48
2019-05-22T14:36:54.594Z,31.80
2019-05-22T14:39:29.299Z,33.00
2019-05-22T14:42:06.790Z,30.60
2019-05-22T14:44:41.643Z,30.30
2019-05-22T14:47:17.945Z,31.60
2019-05-22T14:49:58.955Z,29.23
2019-05-22T14:52:40.559Z,28.60
2019-05-22T14:55:15.772Z,28.15
2019-05-22T14:57:52.756Z,29.45
2019-05-22T15:00:31.791Z,27.95
2019-05-22T15:03:07.704Z,28.23
2019-05-22T15:05:43.577Z,29.20
2019-05-22T15:08:22.278Z,28.90
2019-05-22T15:10:59.390Z,28.00
2019-05-22T15:13:36.654Z,29.48
2019-05-22T15:16:11.973Z,31.20
2019-05-22T15:18:47.599Z,30.52
2019-05-22T15:21:21.975Z,27.73
2019-05-22T15:23:59.157Z,27.67
2019-05-22T15:26:37.469Z,29.32
2019-05-22T15:29:12.803Z,26.35
2019-05-22T15:31:47.359Z,27.22
2019-05-22T15:34:22.458Z,27.73
2019-05-22T15:36:58.477Z,27.48
2019-05-22T15:39:36.794Z,27.32
2019-05-22T15:42:13.042Z,26.77
2019-05-22T15:44:53.318Z,27.62
2019-05-22T15:47:50.184Z,27.70
2019-05-22T15:50:10.045Z,26.40
2019-05-22T15:52:45.262Z,26.60
2019-05-22T15:55:38.874Z,26.40
2019-05-22T15:58:18.062Z,25.80
2019-05-22T16:00:54.394Z,24.82
2019-05-22T16:03:33.893Z,26.42
2019-05-22T16:06:10.095Z,25.30
2019-05-22T16:08:45.685Z,25.75
2019-05-22T16:11:21.748Z,24.92
2019-05-22T16:13:58.496Z,26.62
2019-05-22T16:16:34.422Z,25.65
2019-05-22T16:19:10.605Z,25.62
2019-05-22T16:21:48.216Z,25.85
2019-05-22T16:24:22.855Z,25.52
2019-05-22T16:26:58.564Z,26.23
2019-05-22T16:29:34.806Z,24.67
2019-05-22T16:32:11.674Z,24.72
2019-05-22T16:34:47.538Z,25.82
2019-05-22T16:37:23.277Z,25.45
2019-05-22T16:39:58.897Z,25.95
2019-05-22T16:42:34.577Z,26.57
2019-05-22T16:45:12.656Z,25.85
2019-05-22T16:47:47.461Z,24.20
2019-05-22T16:50:23.560Z,24.65
2019-05-22T16:52:57.957Z,24.90
2019-05-22T16:55:33.976Z,25.60
2019-05-22T16:58:08.931Z,24.63
2019-05-22T17:00:44.925Z,25.52
2019-05-22T17:03:20.351Z,25.00
2019-05-22T17:05:55.165Z,24.43
2019-05-22T17:08:30.728Z,25.43
2019-05-22T17:11:06.296Z,24.63
2019-05-22T17:13:41.375Z,25.05
2019-05-22T17:16:17.056Z,24.07
2019-05-22T17:18:51.350Z,23.38
2019-05-22T17:21:26.351Z,24.45
2019-05-22T17:24:01.745Z,25.20
2019-05-22T17:26:37.623Z,22.87
2019-05-22T17:29:13.087Z,24.77
2019-05-22T17:31:47.362Z,25.45
2019-05-22T17:34:34.007Z,26.33
2019-05-22T17:37:14.360Z,23.52
2019-05-22T17:39:50.354Z,24.95
2019-05-22T17:42:29.090Z,23.00
2019-05-22T17:45:06.141Z,23.70
2019-05-22T17:47:41.597Z,23.83
2019-05-22T17:50:26.496Z,23.67
2019-05-22T17:52:55.856Z,22.30
2019-05-22T17:55:30.102Z,23.10
2019-05-22T17:58:05.399Z,22.90
2019-05-22T18:00:49.747Z,24.43
2019-05-22T18:03:24.878Z,23.52
2019-05-22T18:05:59.386Z,23.00
2019-05-22T18:08:34.069Z,24.12
2019-05-22T18:11:09.693Z,22.42
2019-05-22T18:13:52.008Z,23.47
2019-05-22T18:16:27.823Z,23.07
2019-05-22T18:19:02.299Z,22.67
2019-05-22T18:21:37.023Z,22.32
2019-05-22T18:24:12.035Z,22.58
2019-05-22T18:26:46.378Z,23.62
2019-05-22T18:29:20.751Z,23.50
2019-05-22T18:31:54.998Z,23.07
2019-05-22T18:34:29.372Z,23.35
2019-05-22T18:37:03.484Z,23.50
2019-05-22T18:39:37.887Z,24.05
2019-05-22T18:42:12.341Z,21.97
2019-05-22T18:44:46.702Z,22.15
2019-05-22T18:47:20.853Z,22.37
2019-05-22T18:49:55.144Z,22.58
2019-05-22T18:52:40.407Z,22.80
2019-05-22T18:55:04.753Z,21.55
2019-05-22T18:57:39.448Z,22.82
2019-05-22T19:00:14.420Z,22.93
2019-05-22T19:02:48.376Z,22.05
2019-05-22T19:07:56.444Z,22.22
2019-05-22T19:10:31.547Z,21.87
2019-05-22T19:13:06.366Z,22.77
2019-05-22T19:15:41.219Z,21.82
2019-05-22T19:18:15.843Z,21.93
2019-05-22T19:20:50.227Z,22.25
2019-05-22T19:23:25.912Z,24.12
2019-05-22T19:26:00.413Z,23.85
2019-05-22T19:28:43.362Z,21.87
2019-05-22T19:31:11.526Z,22.32
2019-05-22T19:33:46.132Z,22.27
2019-05-22T19:36:20.360Z,21.73
2019-05-22T19:38:56.066Z,22.02
2019-05-22T19:41:30.667Z,21.90
2019-05-22T19:44:04.893Z,21.82
2019-05-22T19:46:39.180Z,22.40
2019-05-22T19:49:14.015Z,21.52
2019-05-22T19:51:49.144Z,20.88
2019-05-22T19:54:23.987Z,21.50
2019-05-22T19:56:58.212Z,21.93
2019-05-22T19:59:33.371Z,20.60
2019-05-22T20:02:07.578Z,19.80
2019-05-22T20:04:42.095Z,21.20
2019-05-22T20:07:17.434Z,21.90
2019-05-22T20:09:53.191Z,20.35
2019-05-22T20:12:27.887Z,21.65
2019-05-22T20:15:01.759Z,21.25
2019-05-22T20:17:36.602Z,20.80
2019-05-22T20:20:16.626Z,21.07
2019-05-22T20:22:51.517Z,21.37
2019-05-22T20:25:26.335Z,22.25
2019-05-22T20:28:01.411Z,20.27
2019-05-22T20:30:35.755Z,21.17
2019-05-22T20:33:10.098Z,21.65
2019-05-22T20:35:45.030Z,21.17
2019-05-22T20:38:20.119Z,22.87
2019-05-22T20:40:54.754Z,21.82
2019-05-22T20:43:28.963Z,23.38
2019-05-22T20:46:03.488Z,26.07
2019-05-22T20:48:40.055Z,22.95
2019-05-22T20:51:15.611Z,22.22
2019-05-22T20:53:54.292Z,21.42
2019-05-22T20:56:28.985Z,20.30
2019-05-22T20:59:04.949Z,19.95
2019-05-22T21:01:39.882Z,20.45
2019-05-22T21:04:15.598Z,20.57
2019-05-22T21:07:00.497Z,24.87
2019-05-22T21:09:35.928Z,21.45
2019-05-22T21:12:10.608Z,20.17
2019-05-22T21:14:45.069Z,20.37
2019-05-22T21:17:21.259Z,20.77
2019-05-22T21:19:56.765Z,20.05
2019-05-22T21:22:31.847Z,21.85
2019-05-22T21:25:08.210Z,21.73
2019-05-22T21:27:43.845Z,22.80
2019-05-22T21:30:19.131Z,21.12
2019-05-22T21:32:54.105Z,20.82
2019-05-22T21:35:28.699Z,20.37
2019-05-22T21:38:06.127Z,21.52
2019-05-22T21:40:40.523Z,21.55
2019-05-22T21:43:16.669Z,21.37
2019-05-22T21:45:51.819Z,21.05
2019-05-22T21:48:26.866Z,21.93
2019-05-22T21:51:02.030Z,21.15
2019-05-22T21:53:37.632Z,21.52
2019-05-22T21:56:12.872Z,20.92
2019-05-22T21:58:50.852Z,21.12
2019-05-22T22:01:32.612Z,20.60
2019-05-22T22:04:07.941Z,19.17
2019-05-22T22:06:44.816Z,20.15
2019-05-22T22:09:19.555Z,19.80
2019-05-22T22:11:54.461Z,20.17
2019-05-22T22:14:28.953Z,21.10
2019-05-22T22:17:04.970Z,21.82
2019-05-22T22:19:39.669Z,22.62
2019-05-22T22:22:15.537Z,21.35
2019-05-22T22:24:50.429Z,22.85
2019-05-22T22:27:25.037Z,24.02
2019-05-22T22:29:59.381Z,24.98
2019-05-22T22:32:35.153Z,26.02
2019-05-22T22:35:11.843Z,25.40
2019-05-22T22:37:46.625Z,25.52
2019-05-22T22:40:23.578Z,25.10
2019-05-22T22:42:59.189Z,24.80
2019-05-22T22:45:46.969Z,23.92
2019-05-22T22:48:25.388Z,24.85
2019-05-22T22:50:59.875Z,25.52
2019-05-22T22:53:33.908Z,25.65
2019-05-22T22:56:10.124Z,25.48
2019-05-22T22:58:45.146Z,25.95
2019-05-22T23:01:25.204Z,25.20
2019-05-22T23:04:02.851Z,25.50
2019-05-22T23:06:38.760Z,25.90
2019-05-22T23:09:14.179Z,24.75
2019-05-22T23:11:49.402Z,24.63
2019-05-22T23:14:24.453Z,28.60
2019-05-22T23:16:58.670Z,29.35
2019-05-22T23:19:37.523Z,25.15
2019-05-22T23:22:10.340Z,24.18
2019-05-22T23:24:45.258Z,26.00
2019-05-22T23:27:20.923Z,26.75
2019-05-22T23:29:55.815Z,26.95
2019-05-22T23:32:30.043Z,29.18
2019-05-22T23:35:05.400Z,30.32
2019-05-22T23:37:40.725Z,31.45
2019-05-22T23:40:16.920Z,30.75
2019-05-22T23:42:52.223Z,31.77
2019-05-22T23:45:26.736Z,34.00
2019-05-22T23:48:06.635Z,35.33
2019-05-22T23:50:41.984Z,31.93
2019-05-22T23:53:17.934Z,33.78
2019-05-22T23:55:52.326Z,34.90
2019-05-22T23:58:27.623Z,34.50
